Time;durP1;ratioP1;P1;durP2;ratioP2;P2;SDS_P1;SDS_P2;PMS_P1;PMS_P2;Temp;Humidity;BMP_temperature;BMP_pressure;BME280_temperature;BME280_humidity;BME280_pressure;Samples;Min_cycle;Max_cycle;Signal;HPM_P1;HPM_P2
2020/12/30 00:00:57;;;;;;;11.32;1.95;;;20.80;99.90;;;;;;5090535;28;20032;-77
2020/12/30 00:03:24;;;;;;;10.95;2.25;;;20.80;99.90;;;;;;5067604;28;20039;-79
2020/12/30 00:05:51;;;;;;;11.57;2.50;;;20.90;99.90;;;;;;5067969;28;20067;-81
2020/12/30 00:08:19;;;;;;;10.25;2.15;;;21.10;99.90;;;;;;5066153;28;20032;-79
2020/12/30 00:10:46;;;;;;;9.95;2.33;;;21.10;99.90;;;;;;5066113;28;20241;-78
2020/12/30 00:13:13;;;;;;;11.93;1.55;;;21.20;99.90;;;;;;5053114;28;20107;-79
2020/12/30 00:15:41;;;;;;;11.15;2.58;;;21.40;99.90;;;;;;5069235;28;20028;-77
2020/12/30 00:18:08;;;;;;;9.15;1.60;;;21.50;99.90;;;;;;5047224;28;20063;-78
2020/12/30 00:20:35;;;;;;;11.10;1.42;;;21.60;99.90;;;;;;5080078;22;20049;-78
2020/12/30 00:23:03;;;;;;;11.20;1.77;;;21.50;99.90;;;;;;5083611;22;20114;-79
2020/12/30 00:25:30;;;;;;;6.38;1.40;;;21.40;99.90;;;;;;5076972;23;20056;-79
2020/12/30 00:27:57;;;;;;;9.63;1.75;;;21.50;99.90;;;;;;5104956;22;20020;-80
2020/12/30 00:30:24;;;;;;;9.02;1.52;;;21.60;99.90;;;;;;5073721;28;20477;-79
2020/12/30 00:32:52;;;;;;;12.18;2.33;;;21.50;99.90;;;;;;5072642;28;20044;-78
2020/12/30 00:35:19;;;;;;;8.93;1.30;;;21.50;99.90;;;;;;5074197;28;20024;-78
2020/12/30 00:37:46;;;;;;;10.10;2.65;;;21.50;99.90;;;;;;5066636;22;20573;-78
2020/12/30 00:40:14;;;;;;;10.55;1.30;;;21.70;99.90;;;;;;5051747;28;20037;-78
2020/12/30 00:42:41;;;;;;;11.32;1.55;;;21.80;99.90;;;;;;5050800;28;20421;-79
2020/12/30 00:45:10;;;;;;;8.45;1.88;;;22.20;99.90;;;;;;5051471;28;20072;-79
2020/12/30 00:47:37;;;;;;;9.73;1.40;;;22.50;99.90;;;;;;5047480;28;20025;-79
2020/12/30 00:50:06;;;;;;;11.15;1.75;;;22.70;99.90;;;;;;5043316;28;20509;-78
2020/12/30 00:52:34;;;;;;;8.70;1.73;;;22.80;99.90;;;;;;5045869;28;20932;-77
2020/12/30 00:55:02;;;;;;;9.68;1.60;;;22.70;99.90;;;;;;5073349;23;20098;-78
2020/12/30 00:57:30;;;;;;;11.15;1.98;;;23.00;99.90;;;;;;5070543;28;20121;-78
2020/12/30 00:59:57;;;;;;;9.18;1.15;;;23.10;99.90;;;;;;5051857;28;20020;-80
2020/12/30 01:02:24;;;;;;;10.65;2.45;;;23.20;99.90;;;;;;5056244;28;20178;-78
2020/12/30 01:04:51;;;;;;;10.77;2.00;;;23.00;99.90;;;;;;5049058;28;20071;-82
2020/12/30 01:07:19;;;;;;;11.65;2.03;;;23.00;99.90;;;;;;5050170;28;20018;-77
2020/12/30 01:09:46;;;;;;;13.70;2.22;;;23.10;99.90;;;;;;5049580;28;20044;-77
2020/12/30 01:12:13;;;;;;;10.55;1.60;;;23.10;99.90;;;;;;5047747;28;20035;-77
2020/12/30 01:14:40;;;;;;;13.52;1.75;;;22.80;99.90;;;;;;5030009;28;20017;-78
2020/12/30 01:17:08;;;;;;;10.00;1.90;;;23.00;99.90;;;;;;5046115;28;20074;-79
2020/12/30 01:19:35;;;;;;;12.15;2.22;;;23.20;99.90;;;;;;5031534;28;20029;-78
2020/12/30 01:22:03;;;;;;;17.67;2.33;;;23.50;99.90;;;;;;5043291;28;20108;-78
2020/12/30 01:24:30;;;;;;;8.00;1.38;;;23.80;99.90;;;;;;5049889;28;20044;-78
2020/12/30 01:26:57;;;;;;;11.38;2.03;;;24.00;99.90;;;;;;5065035;22;20135;-78
2020/12/30 01:29:24;;;;;;;10.50;1.98;;;24.10;99.90;;;;;;5042327;28;20026;-78
2020/12/30 01:31:52;;;;;;;7.80;1.33;;;24.60;99.90;;;;;;5054054;28;20069;-78
2020/12/30 01:34:19;;;;;;;9.48;2.60;;;24.60;99.90;;;;;;5059113;28;20067;-79
2020/12/30 01:36:51;;;;;;;11.23;2.58;;;24.70;99.90;;;;;;5065984;28;20037;-78
2020/12/30 01:39:18;;;;;;;30.13;11.30;;;25.30;99.90;;;;;;5052481;28;20031;-79
2020/12/30 01:41:46;;;;;;;9.65;1.77;;;24.80;99.90;;;;;;5050868;28;20028;-79
2020/12/30 01:44:13;;;;;;;13.10;1.70;;;24.60;99.90;;;;;;5052511;28;20123;-79
2020/12/30 01:46:42;;;;;;;12.57;1.95;;;24.60;99.90;;;;;;5031963;28;20098;-79
2020/12/30 01:49:13;;;;;;;23.33;9.55;;;24.70;99.90;;;;;;5049900;28;20021;-79
2020/12/30 01:51:42;;;;;;;8.52;1.25;;;25.10;99.90;;;;;;5050221;28;20118;-79
2020/12/30 01:54:11;;;;;;;8.25;1.40;;;25.00;99.90;;;;;;5051767;28;20151;-78
2020/12/30 01:56:39;;;;;;;7.20;1.27;;;24.90;99.90;;;;;;5051358;28;20079;-78
2020/12/30 01:59:09;;;;;;;7.38;1.67;;;25.00;99.90;;;;;;5066560;28;20087;-78
2020/12/30 02:01:39;;;;;;;10.15;2.38;;;25.00;99.90;;;;;;5066521;28;20036;-78
2020/12/30 02:04:09;;;;;;;9.20;1.50;;;25.20;99.90;;;;;;5049779;28;20494;-79
2020/12/30 02:06:37;;;;;;;7.32;1.42;;;24.90;99.90;;;;;;5050372;28;20042;-78
2020/12/30 02:09:07;;;;;;;73.93;20.48;;;25.20;99.90;;;;;;5051888;28;20032;-78
2020/12/30 02:11:34;;;;;;;47.17;20.90;;;25.70;99.90;;;;;;5049598;28;20176;-78
2020/12/30 02:14:04;;;;;;;11.05;2.88;;;26.20;99.90;;;;;;5051988;28;20024;-78
2020/12/30 02:16:33;;;;;;;8.52;1.40;;;25.60;99.90;;;;;;5050334;28;20024;-77
2020/12/30 02:19:00;;;;;;;12.30;2.38;;;25.50;99.90;;;;;;5052260;28;20025;-77
2020/12/30 02:21:27;;;;;;;9.30;1.52;;;25.60;99.90;;;;;;5050079;28;20540;-78
2020/12/30 02:23:57;;;;;;;10.52;1.98;;;25.40;99.90;;;;;;5061376;28;20021;-78
2020/12/30 02:26:24;;;;;;;7.70;1.58;;;25.10;99.90;;;;;;5049840;28;20037;-77
2020/12/30 02:28:51;;;;;;;6.65;1.02;;;25.10;99.90;;;;;;5072857;22;20362;-77
2020/12/30 02:31:19;;;;;;;8.02;1.05;;;25.60;99.90;;;;;;5082502;22;20064;-77
2020/12/30 02:33:46;;;;;;;8.60;1.73;;;25.80;99.90;;;;;;5050319;28;20104;-77
2020/12/30 02:36:13;;;;;;;13.30;2.30;;;25.70;99.90;;;;;;5056133;22;20064;-77
2020/12/30 02:38:40;;;;;;;9.18;1.00;;;24.90;99.90;;;;;;5069778;28;20028;-77
2020/12/30 02:41:08;;;;;;;7.78;1.70;;;24.90;99.90;;;;;;5072142;28;20017;-75
2020/12/30 02:43:35;;;;;;;7.82;1.23;;;25.10;99.90;;;;;;5049663;28;20025;-77
2020/12/30 02:46:02;;;;;;;7.05;1.17;;;24.40;99.90;;;;;;5059448;22;20059;-77
2020/12/30 02:48:30;;;;;;;8.88;1.88;;;23.90;99.90;;;;;;5048618;28;20017;-77
2020/12/30 02:50:57;;;;;;;7.13;0.95;;;23.70;99.90;;;;;;5050545;28;20021;-76
2020/12/30 02:53:24;;;;;;;10.00;2.00;;;24.00;99.90;;;;;;5030783;28;20500;-77
2020/12/30 02:55:51;;;;;;;8.77;1.00;;;23.80;99.90;;;;;;5031761;28;20058;-77
2020/12/30 02:58:19;;;;;;;8.65;1.30;;;23.70;99.90;;;;;;5024641;28;20064;-76
2020/12/30 03:00:46;;;;;;;10.43;1.30;;;23.70;99.90;;;;;;5058579;23;20032;-77
2020/12/30 03:03:13;;;;;;;10.57;1.45;;;23.70;99.90;;;;;;5062867;28;20051;-76
2020/12/30 03:05:40;;;;;;;8.35;1.45;;;23.70;99.90;;;;;;5068946;28;20067;-77
2020/12/30 03:08:08;;;;;;;11.65;1.58;;;23.70;99.90;;;;;;5069613;28;20060;-77
2020/12/30 03:10:35;;;;;;;6.03;1.35;;;23.80;99.90;;;;;;5059454;28;20028;-77
2020/12/30 03:13:02;;;;;;;12.20;1.38;;;23.80;99.90;;;;;;5049242;28;20033;-77
2020/12/30 03:15:30;;;;;;;5.03;1.15;;;23.90;99.90;;;;;;5048247;28;20024;-76
2020/12/30 03:17:57;;;;;;;7.68;1.00;;;23.70;99.90;;;;;;5049019;28;20079;-77
2020/12/30 03:20:24;;;;;;;6.85;1.40;;;23.60;99.90;;;;;;5071364;28;20389;-76
2020/12/30 03:22:51;;;;;;;9.40;1.60;;;23.50;99.90;;;;;;5053183;28;20032;-76
2020/12/30 03:25:19;;;;;;;8.45;1.30;;;23.80;99.90;;;;;;5051250;28;20040;-77
2020/12/30 03:27:46;;;;;;;10.02;1.40;;;23.60;99.90;;;;;;5049582;28;20545;-77
2020/12/30 03:30:13;;;;;;;6.65;1.33;;;24.00;99.90;;;;;;5051036;28;20544;-77
2020/12/30 03:32:40;;;;;;;9.25;1.45;;;24.00;99.90;;;;;;5048717;28;20068;-77
2020/12/30 03:35:08;;;;;;;9.07;1.08;;;23.50;99.90;;;;;;5078339;22;20049;-77
2020/12/30 03:37:36;;;;;;;6.72;1.30;;;23.50;99.90;;;;;;5076755;28;20028;-78
2020/12/30 03:40:03;;;;;;;8.13;1.60;;;23.60;99.90;;;;;;5091410;28;20024;-78
2020/12/30 03:42:31;;;;;;;11.20;1.30;;;23.40;99.90;;;;;;5087611;28;20066;-78
2020/12/30 03:44:59;;;;;;;10.20;1.40;;;23.30;99.90;;;;;;5076477;28;20501;-78
2020/12/30 03:47:30;;;;;;;10.40;1.08;;;23.20;99.90;;;;;;5069243;28;20388;-80
2020/12/30 03:49:57;;;;;;;8.40;1.08;;;23.10;99.90;;;;;;5073537;28;20052;-78
2020/12/30 03:52:25;;;;;;;13.20;1.75;;;23.00;99.90;;;;;;5072006;28;20017;-78
2020/12/30 03:54:52;;;;;;;7.10;1.67;;;22.90;99.90;;;;;;5074974;28;20503;-78
2020/12/30 03:57:19;;;;;;;9.02;0.98;;;23.00;99.90;;;;;;5066790;28;20029;-78
2020/12/30 03:59:46;;;;;;;9.10;1.45;;;23.10;99.90;;;;;;5067010;28;20024;-79
2020/12/30 04:02:14;;;;;;;10.50;1.52;;;23.10;99.90;;;;;;5055298;28;20025;-77
2020/12/30 04:04:41;;;;;;;7.55;0.80;;;23.00;99.90;;;;;;5045159;28;20110;-81
2020/12/30 04:07:08;;;;;;;6.65;1.25;;;23.10;99.90;;;;;;5071669;28;20032;-76
2020/12/30 04:09:36;;;;;;;12.13;1.88;;;23.00;99.90;;;;;;5073194;28;20040;-77
2020/12/30 04:12:03;;;;;;;9.07;1.20;;;22.80;99.90;;;;;;5071165;28;20020;-77
2020/12/30 04:14:30;;;;;;;9.68;1.77;;;22.70;99.90;;;;;;5071076;28;20029;-77
2020/12/30 04:16:58;;;;;;;8.77;1.02;;;22.70;99.90;;;;;;5067620;28;20112;-78
2020/12/30 04:19:25;;;;;;;10.57;1.38;;;22.80;99.90;;;;;;5069996;28;20107;-81
2020/12/30 04:21:52;;;;;;;11.25;2.13;;;22.70;99.90;;;;;;5071858;28;20028;-76
2020/12/30 04:24:19;;;;;;;7.50;1.25;;;22.80;99.90;;;;;;5073252;28;20138;-76
2020/12/30 04:26:47;;;;;;;6.60;2.08;;;22.80;99.90;;;;;;5072344;28;20024;-75
2020/12/30 04:29:14;;;;;;;9.50;1.10;;;22.70;99.90;;;;;;5052851;28;20470;-75
2020/12/30 04:31:41;;;;;;;11.27;1.38;;;22.50;99.90;;;;;;5070766;28;20124;-74
2020/12/30 04:34:09;;;;;;;7.35;1.25;;;22.50;99.90;;;;;;5070962;28;20031;-75
2020/12/30 04:36:36;;;;;;;8.82;1.50;;;22.40;99.90;;;;;;5082069;22;20049;-76
2020/12/30 04:39:03;;;;;;;7.60;1.30;;;22.40;99.90;;;;;;5058164;22;20059;-76
2020/12/30 04:41:36;;;;;;;11.15;1.38;;;22.50;99.90;;;;;;5071946;28;20398;-75
2020/12/30 04:44:05;;;;;;;5.78;1.15;;;22.40;99.90;;;;;;5090018;22;20048;-75
2020/12/30 04:46:33;;;;;;;6.82;1.20;;;22.20;99.90;;;;;;5071767;28;20063;-76
2020/12/30 04:49:01;;;;;;;12.63;2.30;;;22.20;99.90;;;;;;5060741;28;20056;-76
2020/12/30 04:51:29;;;;;;;12.25;1.25;;;22.10;99.90;;;;;;5051550;28;20079;-75
2020/12/30 04:54:00;;;;;;;11.95;2.05;;;22.10;99.90;;;;;;5060269;22;20076;-75
2020/12/30 04:56:58;;;;;;;12.25;2.13;;;22.00;99.90;;;;;;5070316;28;20032;-75
2020/12/30 04:59:42;;;;;;;11.95;1.20;;;21.90;99.90;;;;;;5037465;28;20091;-75
2020/12/30 05:02:13;;;;;;;9.20;1.63;;;21.80;99.90;;;;;;5039351;28;20021;-74
2020/12/30 05:04:41;;;;;;;8.52;1.10;;;21.70;99.90;;;;;;5049422;28;20037;-75
2020/12/30 05:07:09;;;;;;;10.27;1.92;;;21.70;99.90;;;;;;5049435;28;20033;-75
2020/12/30 05:09:38;;;;;;;12.13;1.25;;;21.80;99.90;;;;;;5069254;22;20049;-75
2020/12/30 05:12:16;;;;;;;10.35;1.65;;;21.90;99.90;;;;;;5049130;28;20034;-76
2020/12/30 05:14:44;;;;;;;8.70;1.58;;;21.80;99.90;;;;;;5052962;28;20024;-75
2020/12/30 05:17:13;;;;;;;8.02;1.17;;;21.90;99.90;;;;;;5051724;28;20120;-76
2020/12/30 05:19:43;;;;;;;9.75;1.25;;;22.00;99.90;;;;;;5034792;28;20109;-75
2020/12/30 05:22:21;;;;;;;9.80;1.60;;;22.10;99.90;;;;;;5030993;28;20025;-75
2020/12/30 05:24:49;;;;;;;10.75;1.83;;;22.30;99.90;;;;;;5027095;28;20160;-75
2020/12/30 05:27:18;;;;;;;5.07;0.63;;;22.30;99.90;;;;;;5028010;28;20601;-76
2020/12/30 05:29:51;;;;;;;7.68;1.08;;;22.20;99.90;;;;;;5023857;28;20589;-76
2020/12/30 05:32:19;;;;;;;15.32;2.17;;;22.10;99.90;;;;;;5030718;28;20160;-76
2020/12/30 05:34:47;;;;;;;9.45;1.70;;;22.00;99.90;;;;;;5033138;28;20032;-77
2020/12/30 05:37:15;;;;;;;7.32;1.00;;;22.10;99.90;;;;;;5030810;28;20036;-76
2020/12/30 05:39:43;;;;;;;6.32;0.80;;;22.10;99.90;;;;;;5033039;28;20041;-76
2020/12/30 05:42:17;;;;;;;5.28;1.23;;;22.00;99.90;;;;;;5046367;22;20033;-76
2020/12/30 05:44:47;;;;;;;9.77;1.35;;;21.90;99.90;;;;;;5041663;28;20048;-76
2020/12/30 05:47:22;;;;;;;8.57;1.83;;;22.00;99.90;;;;;;5053104;28;20024;-76
2020/12/30 05:49:55;;;;;;;11.32;1.95;;;22.00;99.90;;;;;;5052720;28;20028;-75
2020/12/30 05:52:24;;;;;;;8.30;1.25;;;22.00;99.90;;;;;;5050640;28;20163;-75
2020/12/30 05:54:57;;;;;;;11.25;1.73;;;21.90;99.90;;;;;;5052628;28;20055;-76
2020/12/30 05:57:25;;;;;;;7.68;1.83;;;21.90;99.90;;;;;;5049858;28;20112;-76
2020/12/30 05:59:55;;;;;;;12.73;1.58;;;21.80;99.90;;;;;;5052179;28;20052;-76
2020/12/30 06:02:30;;;;;;;6.10;0.93;;;21.80;99.90;;;;;;5050322;28;20032;-75
2020/12/30 06:05:16;;;;;;;9.00;2.10;;;21.60;99.90;;;;;;5050084;28;20040;-76
2020/12/30 06:07:47;;;;;;;12.38;2.00;;;21.60;99.90;;;;;;5046253;28;20413;-76
2020/12/30 06:10:17;;;;;;;10.35;1.40;;;21.50;99.90;;;;;;5052280;28;20045;-75
2020/12/30 06:12:53;;;;;;;9.82;1.00;;;21.40;99.90;;;;;;5050051;28;20139;-75
2020/12/30 06:15:25;;;;;;;7.22;1.17;;;21.40;99.90;;;;;;5052129;28;20029;-78
2020/12/30 06:18:01;;;;;;;10.77;1.10;;;21.30;99.90;;;;;;5049722;28;20116;-75
2020/12/30 06:20:36;;;;;;;11.93;1.70;;;21.40;99.90;;;;;;5032544;28;20493;-75
2020/12/30 06:23:06;;;;;;;6.13;1.27;;;21.40;99.90;;;;;;5042030;28;20026;-75
2020/12/30 06:25:39;;;;;;;7.55;1.60;;;21.40;99.90;;;;;;5051729;28;20378;-75
2020/12/30 06:28:21;;;;;;;8.70;1.23;;;21.40;99.90;;;;;;5049844;28;20096;-75
2020/12/30 06:30:52;;;;;;;11.23;1.42;;;21.30;99.90;;;;;;5051646;28;20029;-75
2020/12/30 06:33:23;;;;;;;7.90;2.05;;;21.20;99.90;;;;;;5049607;28;20025;-75
2020/12/30 06:35:56;;;;;;;4.80;1.08;;;21.30;99.90;;;;;;5051671;28;20055;-75
2020/12/30 06:38:32;;;;;;;8.68;1.40;;;21.20;99.90;;;;;;5032638;28;20021;-75
2020/12/30 06:41:03;;;;;;;13.55;2.25;;;21.20;99.90;;;;;;5051797;28;20025;-75
2020/12/30 06:46:08;;;;;;;10.98;4.10;;;21.30;99.90;;;;;;5078331;22;20523;-75
2020/12/30 06:49:00;;;;;;;5.93;2.00;;;21.20;99.90;;;;;;5060383;28;20474;-75
2020/12/30 06:51:34;;;;;;;7.53;1.30;;;21.20;99.90;;;;;;5064378;22;20598;-75
2020/12/30 06:54:02;;;;;;;;;;;21.20;99.90;;;;;;5052172;28;20501;-75
2020/12/30 06:56:58;;;;;;;10.02;2.00;;;21.20;99.90;;;;;;5049819;28;19959;-75
2020/12/30 06:59:32;;;;;;;7.32;1.40;;;21.30;99.90;;;;;;5038068;22;20491;-78
2020/12/30 07:02:03;;;;;;;;;;;21.20;99.90;;;;;;5049497;28;20017;-76
2020/12/30 07:04:33;;;;;;;5.50;1.15;;;21.20;99.90;;;;;;5049396;28;20415;-76
2020/12/30 07:07:00;;;;;;;7.78;1.08;;;21.30;99.90;;;;;;5049778;28;20344;-76
2020/12/30 07:09:35;;;;;;;9.40;1.60;;;21.20;99.90;;;;;;5034829;28;20014;-76
2020/12/30 07:12:04;;;;;;;11.40;1.95;;;21.10;99.90;;;;;;5011968;28;20034;-75
2020/12/30 07:14:33;;;;;;;7.93;1.73;;;21.00;99.90;;;;;;5020743;28;20028;-76
2020/12/30 07:17:05;;;;;;;6.25;0.70;;;21.00;99.90;;;;;;5065987;22;20048;-75
2020/12/30 07:19:43;;;;;;;9.15;0.73;;;21.10;99.90;;;;;;5058244;28;20031;-75
2020/12/30 07:22:16;;;;;;;10.35;1.00;;;21.10;99.90;;;;;;5053842;28;20028;-75
2020/12/30 07:24:58;;;;;;;9.07;2.03;;;21.10;99.90;;;;;;5055098;28;20556;-75
2020/12/30 07:27:29;;;;;;;7.45;0.95;;;21.10;99.90;;;;;;5052133;28;20021;-75
2020/12/30 07:29:57;;;;;;;7.93;1.13;;;21.00;99.90;;;;;;5055360;28;20101;-75
2020/12/30 07:32:24;;;;;;;7.15;1.25;;;21.00;99.90;;;;;;5052927;28;20029;-75
2020/12/30 07:34:52;;;;;;;10.48;1.33;;;21.00;99.90;;;;;;5055021;28;20032;-75
2020/12/30 07:37:21;;;;;;;5.35;0.95;;;20.90;99.90;;;;;;5051739;28;20031;-75
2020/12/30 07:39:50;;;;;;;9.13;0.90;;;20.90;99.90;;;;;;5055123;28;20108;-75
2020/12/30 07:42:27;;;;;;;7.40;0.90;;;20.90;99.90;;;;;;5053457;28;20052;-75
2020/12/30 07:44:56;;;;;;;7.65;0.85;;;20.90;99.90;;;;;;5055066;28;20525;-75
2020/12/30 07:47:28;;;;;;;14.38;1.42;;;20.90;99.90;;;;;;5054108;28;20025;-75
2020/12/30 07:50:02;;;;;;;12.32;1.65;;;20.90;99.90;;;;;;5101008;22;20131;-75
2020/12/30 07:52:29;;;;;;;9.43;1.58;;;20.90;99.90;;;;;;5093548;28;20032;-75
2020/12/30 07:54:57;;;;;;;10.85;1.30;;;20.80;99.90;;;;;;5093120;28;20020;-75
2020/12/30 07:57:24;;;;;;;5.95;0.93;;;20.70;99.90;;;;;;5093242;28;20047;-75
2020/12/30 07:59:52;;;;;;;7.50;1.33;;;20.70;99.90;;;;;;5074793;28;20021;-74
2020/12/30 08:02:20;;;;;;;9.02;1.52;;;20.70;99.90;;;;;;5072453;28;20489;-75
2020/12/30 08:04:59;;;;;;;8.23;1.27;;;20.70;99.90;;;;;;5071016;28;20059;-75
2020/12/30 08:07:29;;;;;;;6.30;0.90;;;20.70;99.90;;;;;;5071228;28;20028;-75
2020/12/30 08:09:56;;;;;;;8.13;1.27;;;20.70;99.90;;;;;;5073610;28;20489;-75
2020/12/30 08:12:24;;;;;;;10.57;2.20;;;20.70;99.90;;;;;;5072843;28;20393;-76
2020/12/30 08:14:53;;;;;;;10.73;1.90;;;20.70;99.90;;;;;;5071720;28;20044;-75
2020/12/30 08:17:22;;;;;;;9.32;0.80;;;20.70;99.90;;;;;;5072558;28;20031;-75
2020/12/30 08:19:53;;;;;;;5.68;1.27;;;20.70;99.90;;;;;;5074585;28;20119;-75
2020/12/30 08:22:29;;;;;;;6.25;1.20;;;20.70;99.90;;;;;;5072556;28;20029;-75
2020/12/30 08:24:58;;;;;;;9.63;1.60;;;20.70;99.90;;;;;;5073979;28;20055;-75
2020/12/30 08:27:28;;;;;;;8.38;0.80;;;20.70;99.90;;;;;;5054368;28;20029;-75
2020/12/30 08:30:00;;;;;;;7.40;1.00;;;20.70;99.90;;;;;;5073428;28;20034;-75
2020/12/30 08:32:41;;;;;;;5.10;1.25;;;20.70;99.90;;;;;;5072185;28;20511;-75
2020/12/30 08:35:31;;;;;;;10.65;1.88;;;20.70;99.90;;;;;;5065755;28;20025;-75
2020/12/30 08:38:20;;;;;;;7.07;1.00;;;20.70;99.90;;;;;;5069753;28;20385;-75
2020/12/30 08:40:53;;;;;;;7.63;1.40;;;20.60;99.90;;;;;;5073971;28;20024;-75
2020/12/30 08:43:43;;;;;;;8.77;1.55;;;20.60;99.90;;;;;;5070135;28;20029;-75
2020/12/30 08:46:19;;;;;;;7.18;1.33;;;20.60;99.90;;;;;;5055633;28;20105;-75
2020/12/30 08:48:51;;;;;;;7.55;0.90;;;20.60;99.90;;;;;;5074990;28;20033;-75
2020/12/30 08:51:33;;;;;;;11.73;2.35;;;20.50;99.90;;;;;;5087632;22;20066;-75
2020/12/30 08:54:01;;;;;;;10.48;1.23;;;20.50;99.90;;;;;;5087074;23;20044;-75
2020/12/30 08:56:29;;;;;;;10.73;1.60;;;20.40;99.90;;;;;;5092013;28;20094;-75
2020/12/30 08:58:58;;;;;;;10.75;1.50;;;20.40;99.90;;;;;;5060038;23;20498;-75
2020/12/30 09:01:28;;;;;;;7.50;0.90;;;20.40;99.90;;;;;;5070648;28;20346;-75
2020/12/30 09:04:12;;;;;;;9.73;1.25;;;20.40;99.90;;;;;;5050167;28;20027;-76
2020/12/30 09:06:41;;;;;;;8.07;1.83;;;20.40;99.90;;;;;;5063361;22;20018;-75
2020/12/30 09:09:11;;;;;;;13.38;2.65;;;20.40;99.90;;;;;;5093608;28;20103;-76
2020/12/30 09:11:46;;;;;;;15.43;2.13;;;20.40;99.90;;;;;;5089833;28;20013;-75
2020/12/30 09:14:21;;;;;;;12.38;1.65;;;20.40;99.90;;;;;;5093466;28;20020;-75
2020/12/30 09:16:56;;;;;;;9.55;1.30;;;20.40;99.90;;;;;;5078140;28;20384;-75
2020/12/30 09:19:22;;;;;;;;;;;20.40;99.90;;;;;;5074114;28;20024;-75
2020/12/30 09:21:50;;;;;;;8.60;1.58;;;20.30;99.90;;;;;;5074193;28;20348;-75
2020/12/30 09:24:17;;;;;;;8.38;1.75;;;20.40;99.90;;;;;;5110504;22;20052;-75
2020/12/30 09:26:45;;;;;;;11.98;1.98;;;20.40;99.90;;;;;;5093908;28;20059;-75
2020/12/30 09:29:19;;;;;;;11.32;1.55;;;20.40;99.90;;;;;;5109554;28;20025;-75
2020/12/30 09:31:57;;;;;;;11.73;1.60;;;20.40;99.90;;;;;;5093411;28;20035;-75
2020/12/30 09:34:26;;;;;;;8.77;1.30;;;20.30;99.90;;;;;;5113128;28;20031;-76
2020/12/30 09:36:58;;;;;;;12.20;0.95;;;20.30;99.90;;;;;;5109334;28;20023;-75
2020/12/30 09:39:27;;;;;;;11.30;1.40;;;20.30;99.90;;;;;;5113139;28;20020;-76
2020/12/30 09:42:03;;;;;;;9.23;1.20;;;20.30;99.90;;;;;;5104644;28;20015;-76
2020/12/30 09:44:31;;;;;;;8.50;1.13;;;20.20;99.90;;;;;;5075179;28;20115;-76
2020/12/30 09:46:59;;;;;;;7.30;1.17;;;20.20;99.90;;;;;;5080941;28;20034;-76
2020/12/30 09:49:26;;;;;;;8.60;1.00;;;20.20;99.90;;;;;;5113261;28;20028;-76
2020/12/30 09:51:57;;;;;;;11.85;1.35;;;20.20;99.90;;;;;;5090288;28;20020;-76
2020/12/30 09:54:26;;;;;;;10.95;0.90;;;20.10;99.90;;;;;;5071844;28;20123;-76
2020/12/30 09:56:53;;;;;;;7.80;1.30;;;20.10;99.90;;;;;;5078075;22;20044;-76
2020/12/30 09:59:20;;;;;;;10.60;1.52;;;20.10;99.90;;;;;;5068171;28;20029;-76
2020/12/30 10:01:49;;;;;;;7.40;0.82;;;20.10;99.90;;;;;;5069726;28;20056;-76
2020/12/30 10:04:16;;;;;;;10.20;1.27;;;20.00;99.90;;;;;;5069297;28;20032;-76
2020/12/30 10:06:50;;;;;;;10.10;1.30;;;20.00;99.90;;;;;;5069147;28;20033;-75
2020/12/30 10:09:17;;;;;;;14.10;1.55;;;20.00;99.90;;;;;;5069945;28;20024;-76
2020/12/30 10:11:44;;;;;;;10.07;1.50;;;20.00;99.90;;;;;;5070411;28;20116;-75
2020/12/30 10:14:11;;;;;;;13.00;1.33;;;20.00;99.90;;;;;;5072157;28;20020;-76
2020/12/30 10:16:39;;;;;;;14.35;1.83;;;20.00;99.90;;;;;;5069966;28;20024;-75
2020/12/30 10:19:06;;;;;;;6.88;1.52;;;19.90;99.90;;;;;;5071925;28;20056;-76
2020/12/30 10:21:33;;;;;;;12.38;1.30;;;19.90;99.90;;;;;;5070193;28;20029;-76
2020/12/30 10:24:01;;;;;;;12.65;2.08;;;19.90;99.90;;;;;;5071722;28;20055;-76
2020/12/30 10:26:28;;;;;;;7.70;1.48;;;19.80;99.90;;;;;;5069933;28;20033;-76
2020/12/30 10:28:55;;;;;;;10.52;1.67;;;19.80;99.90;;;;;;5071866;28;20063;-75
2020/12/30 10:31:23;;;;;;;8.80;1.48;;;19.90;99.90;;;;;;5070018;28;20027;-76
2020/12/30 10:33:51;;;;;;;12.18;1.50;;;19.90;99.90;;;;;;5071257;28;20504;-76
2020/12/30 10:36:18;;;;;;;16.33;1.70;;;19.80;99.90;;;;;;5069317;28;20028;-76
2020/12/30 10:38:46;;;;;;;13.95;2.97;;;19.80;99.90;;;;;;5070815;28;20560;-76
2020/12/30 10:41:17;;;;;;;8.98;2.30;;;19.80;99.90;;;;;;5071281;28;20374;-76
2020/12/30 10:43:45;;;;;;;11.48;2.03;;;19.80;99.90;;;;;;5069166;28;20036;-76
2020/12/30 10:46:17;;;;;;;8.02;1.42;;;19.80;99.90;;;;;;5066495;28;20040;-76
2020/12/30 10:48:46;;;;;;;10.00;1.60;;;19.80;99.90;;;;;;5068957;28;20111;-76
2020/12/30 10:51:15;;;;;;;10.13;2.10;;;19.70;99.90;;;;;;5069395;28;20021;-76
2020/12/30 10:53:42;;;;;;;6.63;1.05;;;19.70;99.90;;;;;;5068592;28;20028;-76
2020/12/30 10:56:11;;;;;;;10.15;1.52;;;19.70;99.90;;;;;;5071105;28;20112;-76
2020/12/30 10:58:39;;;;;;;8.20;1.33;;;19.60;99.90;;;;;;5084102;22;20045;-76
2020/12/30 11:01:10;;;;;;;7.25;1.63;;;19.60;99.90;;;;;;5066356;22;20074;-76
2020/12/30 11:03:38;;;;;;;7.97;1.60;;;19.60;99.90;;;;;;5068741;28;20021;-76
2020/12/30 11:06:06;;;;;;;13.02;2.25;;;19.60;99.90;;;;;;5087427;22;20513;-76
2020/12/30 11:08:33;;;;;;;13.57;1.70;;;19.60;99.90;;;;;;5060735;28;20031;-76
2020/12/30 11:11:02;;;;;;;9.02;1.10;;;19.60;99.90;;;;;;5051270;28;20032;-76
2020/12/30 11:13:30;;;;;;;9.45;2.17;;;19.60;99.90;;;;;;5067009;22;20021;-76
2020/12/30 11:15:57;;;;;;;11.32;1.50;;;19.60;99.90;;;;;;5070625;28;20036;-76
2020/12/30 11:18:25;;;;;;;3.05;0.75;;;19.60;99.90;;;;;;5061738;28;20029;-76
2020/12/30 11:20:52;;;;;;;14.05;2.28;;;19.60;99.90;;;;;;5051357;28;20482;-76
2020/12/30 11:23:19;;;;;;;9.88;1.17;;;19.60;99.90;;;;;;5048272;28;20025;-76
2020/12/30 11:25:47;;;;;;;5.95;1.33;;;19.50;99.90;;;;;;5051383;28;20071;-76
2020/12/30 11:28:14;;;;;;;10.90;1.58;;;19.50;99.90;;;;;;5049523;28;20056;-76
2020/12/30 11:30:42;;;;;;;7.90;1.30;;;19.60;99.90;;;;;;5065393;22;20052;-75
2020/12/30 11:33:09;;;;;;;8.25;1.27;;;19.60;99.90;;;;;;5065733;28;20028;-76
2020/12/30 11:35:36;;;;;;;7.28;1.42;;;19.60;99.90;;;;;;5071386;28;20025;-76
2020/12/30 11:38:04;;;;;;;11.88;1.48;;;19.60;99.90;;;;;;5063947;28;20466;-76
2020/12/30 11:40:31;;;;;;;9.13;2.00;;;19.50;99.90;;;;;;5051280;28;20505;-76
2020/12/30 11:42:58;;;;;;;6.35;0.98;;;19.50;99.90;;;;;;5045219;28;20032;-76
2020/12/30 11:45:26;;;;;;;11.63;1.40;;;19.40;99.90;;;;;;5049739;28;20037;-75
2020/12/30 11:47:54;;;;;;;7.07;1.00;;;19.40;99.90;;;;;;5044067;28;20051;-76
2020/12/30 11:50:21;;;;;;;10.68;1.10;;;19.40;99.90;;;;;;5050786;28;20059;-76
2020/12/30 11:52:49;;;;;;;10.95;1.15;;;19.40;99.90;;;;;;5049602;28;20038;-76
2020/12/30 11:55:16;;;;;;;11.27;1.30;;;19.40;99.90;;;;;;5051220;28;20520;-76
2020/12/30 11:57:43;;;;;;;9.95;1.42;;;19.40;99.90;;;;;;5048415;28;20052;-76
2020/12/30 12:00:11;;;;;;;6.90;1.40;;;19.40;99.90;;;;;;5048457;28;20025;-76
2020/12/30 12:02:39;;;;;;;8.68;1.13;;;19.40;99.90;;;;;;5049287;28;20025;-76
2020/12/30 12:05:11;;;;;;;9.63;1.95;;;19.40;99.90;;;;;;5076959;22;20052;-75
2020/12/30 12:07:39;;;;;;;8.93;1.20;;;19.40;99.90;;;;;;5071414;28;20029;-75
2020/12/30 12:10:08;;;;;;;7.80;1.88;;;19.40;99.90;;;;;;5036552;28;20013;-75
2020/12/30 12:12:35;;;;;;;8.32;0.90;;;19.40;99.90;;;;;;5051936;28;20035;-75
2020/12/30 12:15:07;;;;;;;8.50;1.17;;;19.40;99.90;;;;;;5054174;28;20025;-75
2020/12/30 12:17:35;;;;;;;11.85;1.52;;;19.40;99.90;;;;;;5052555;28;20028;-75
2020/12/30 12:20:04;;;;;;;9.23;1.45;;;19.40;99.90;;;;;;5036381;28;20392;-75
2020/12/30 12:22:31;;;;;;;9.13;1.42;;;19.40;99.90;;;;;;5051757;28;20481;-77
2020/12/30 12:24:58;;;;;;;6.93;0.85;;;19.40;99.90;;;;;;5051184;28;20056;-77
2020/12/30 12:27:26;;;;;;;6.65;1.17;;;19.30;99.90;;;;;;5052325;28;20032;-77
2020/12/30 12:29:53;;;;;;;10.13;1.50;;;19.30;99.90;;;;;;5036458;28;20025;-77
2020/12/30 12:32:26;;;;;;;9.85;1.92;;;19.30;99.90;;;;;;5052410;28;20028;-77
2020/12/30 12:34:55;;;;;;;6.07;0.90;;;19.30;99.90;;;;;;5036237;28;20033;-77
2020/12/30 12:37:24;;;;;;;6.32;1.13;;;19.30;99.90;;;;;;5048630;28;20013;-77
2020/12/30 12:39:53;;;;;;;9.90;1.00;;;19.20;99.90;;;;;;5051885;28;20025;-77
2020/12/30 12:42:22;;;;;;;7.80;1.25;;;19.20;99.90;;;;;;5050729;28;20123;-77
2020/12/30 12:44:51;;;;;;;8.15;1.67;;;19.20;99.90;;;;;;5053885;28;20035;-77
2020/12/30 12:47:19;;;;;;;11.70;1.67;;;19.20;99.90;;;;;;5052072;28;20028;-77
2020/12/30 12:49:46;;;;;;;8.05;1.00;;;19.20;99.90;;;;;;5053569;28;20517;-77
2020/12/30 12:52:14;;;;;;;12.32;1.73;;;19.20;99.90;;;;;;5051146;28;20029;-77
2020/12/30 12:54:41;;;;;;;11.07;1.08;;;19.20;99.90;;;;;;5053890;28;20482;-77
2020/12/30 12:57:08;;;;;;;6.10;1.50;;;19.20;99.90;;;;;;5051800;28;20043;-77